sensor_id;sensor_type;location;lat;lon;timestamp;P1;durP1;ratioP1;P2;durP2;ratioP2
22046;SDS011;11187;49.412;20.956;2023-05-06T00:01:38;19.10;;;15.60;;
22046;SDS011;11187;49.412;20.956;2023-05-06T00:04:25;16.88;;;15.38;;
22046;SDS011;11187;49.412;20.956;2023-05-06T00:06:59;18.00;;;16.48;;
22046;SDS011;11187;49.412;20.956;2023-05-06T00:09:45;17.05;;;15.43;;
22046;SDS011;11187;49.412;20.956;2023-05-06T00:12:39;17.40;;;15.88;;
22046;SDS011;11187;49.412;20.956;2023-05-06T00:15:33;17.17;;;15.75;;
22046;SDS011;11187;49.412;20.956;2023-05-06T00:18:07;16.20;;;14.68;;
22046;SDS011;11187;49.412;20.956;2023-05-06T00:20:53;18.30;;;16.42;;
22046;SDS011;11187;49.412;20.956;2023-05-06T00:23:26;15.73;;;14.43;;
22046;SDS011;11187;49.412;20.956;2023-05-06T00:26:13;17.65;;;15.85;;
22046;SDS011;11187;49.412;20.956;2023-05-06T00:28:47;15.80;;;14.32;;
22046;SDS011;11187;49.412;20.956;2023-05-06T00:31:41;15.98;;;14.48;;
22046;SDS011;11187;49.412;20.956;2023-05-06T00:34:14;15.27;;;13.95;;
22046;SDS011;11187;49.412;20.956;2023-05-06T00:37:01;16.27;;;14.88;;
22046;SDS011;11187;49.412;20.956;2023-05-06T00:39:34;15.82;;;14.63;;
22046;SDS011;11187;49.412;20.956;2023-05-06T00:42:28;17.15;;;15.57;;
22046;SDS011;11187;49.412;20.956;2023-05-06T00:45:02;16.50;;;15.00;;
22046;SDS011;11187;49.412;20.956;2023-05-06T00:47:55;17.08;;;15.57;;
22046;SDS011;11187;49.412;20.956;2023-05-06T00:50:31;16.63;;;15.30;;
22046;SDS011;11187;49.412;20.956;2023-05-06T00:53:19;16.00;;;14.80;;
22046;SDS011;11187;49.412;20.956;2023-05-06T00:55:55;17.88;;;16.27;;
22046;SDS011;11187;49.412;20.956;2023-05-06T00:58:49;16.75;;;15.43;;
22046;SDS011;11187;49.412;20.956;2023-05-06T01:01:43;16.80;;;15.18;;
22046;SDS011;11187;49.412;20.956;2023-05-06T01:04:37;17.08;;;15.68;;
22046;SDS011;11187;49.412;20.956;2023-05-06T01:07:35;17.65;;;16.20;;
22046;SDS011;11187;49.412;20.956;2023-05-06T01:16:04;17.40;;;15.90;;
22046;SDS011;11187;49.412;20.956;2023-05-06T01:19:01;17.50;;;15.93;;
22046;SDS011;11187;49.412;20.956;2023-05-06T01:21:41;17.30;;;15.80;;
22046;SDS011;11187;49.412;20.956;2023-05-06T01:24:44;17.05;;;15.45;;
22046;SDS011;11187;49.412;20.956;2023-05-06T01:27:39;15.20;;;14.00;;
22046;SDS011;11187;49.412;20.956;2023-05-06T01:30:35;16.90;;;15.60;;
22046;SDS011;11187;49.412;20.956;2023-05-06T01:39:25;15.98;;;14.48;;
22046;SDS011;11187;49.412;20.956;2023-05-06T01:42:15;16.88;;;15.43;;
22046;SDS011;11187;49.412;20.956;2023-05-06T01:44:49;16.55;;;15.15;;
22046;SDS011;11187;49.412;20.956;2023-05-06T01:47:38;15.85;;;14.45;;
22046;SDS011;11187;49.412;20.956;2023-05-06T01:50:13;16.75;;;15.43;;
22046;SDS011;11187;49.412;20.956;2023-05-06T01:53:01;16.42;;;14.70;;
22046;SDS011;11187;49.412;20.956;2023-05-06T01:55:34;15.70;;;14.30;;
22046;SDS011;11187;49.412;20.956;2023-05-06T01:58:21;15.98;;;14.60;;
22046;SDS011;11187;49.412;20.956;2023-05-06T02:00:54;17.40;;;15.90;;
22046;SDS011;11187;49.412;20.956;2023-05-06T02:03:41;15.02;;;13.63;;
22046;SDS011;11187;49.412;20.956;2023-05-06T02:06:15;16.13;;;14.90;;
22046;SDS011;11187;49.412;20.956;2023-05-06T02:09:01;15.77;;;14.50;;
22046;SDS011;11187;49.412;20.956;2023-05-06T02:11:35;16.30;;;14.75;;
22046;SDS011;11187;49.412;20.956;2023-05-06T02:14:21;15.90;;;14.45;;
22046;SDS011;11187;49.412;20.956;2023-05-06T02:16:54;17.10;;;15.70;;
22046;SDS011;11187;49.412;20.956;2023-05-06T02:19:42;15.82;;;14.55;;
22046;SDS011;11187;49.412;20.956;2023-05-06T02:22:16;15.90;;;14.60;;
22046;SDS011;11187;49.412;20.956;2023-05-06T02:25:02;16.90;;;15.50;;
22046;SDS011;11187;49.412;20.956;2023-05-06T02:27:36;16.38;;;14.88;;
22046;SDS011;11187;49.412;20.956;2023-05-06T02:30:30;17.85;;;16.40;;
22046;SDS011;11187;49.412;20.956;2023-05-06T02:33:03;17.17;;;15.70;;
22046;SDS011;11187;49.412;20.956;2023-05-06T02:35:50;17.65;;;16.05;;
22046;SDS011;11187;49.412;20.956;2023-05-06T02:38:24;16.63;;;15.02;;
22046;SDS011;11187;49.412;20.956;2023-05-06T02:41:11;17.10;;;15.25;;
22046;SDS011;11187;49.412;20.956;2023-05-06T02:43:45;16.27;;;14.77;;
22046;SDS011;11187;49.412;20.956;2023-05-06T02:46:31;17.00;;;15.63;;
22046;SDS011;11187;49.412;20.956;2023-05-06T02:49:07;17.00;;;15.50;;
22046;SDS011;11187;49.412;20.956;2023-05-06T02:51:53;16.52;;;15.13;;
22046;SDS011;11187;49.412;20.956;2023-05-06T02:54:27;17.75;;;16.10;;
22046;SDS011;11187;49.412;20.956;2023-05-06T02:57:13;18.55;;;16.95;;
22046;SDS011;11187;49.412;20.956;2023-05-06T02:59:53;16.83;;;15.25;;
22046;SDS011;11187;49.412;20.956;2023-05-06T03:02:27;17.52;;;16.08;;
22046;SDS011;11187;49.412;20.956;2023-05-06T03:05:13;17.58;;;15.98;;
22046;SDS011;11187;49.412;20.956;2023-05-06T03:07:47;17.75;;;16.25;;
22046;SDS011;11187;49.412;20.956;2023-05-06T03:10:33;18.88;;;17.17;;
22046;SDS011;11187;49.412;20.956;2023-05-06T03:13:07;17.80;;;16.10;;
22046;SDS011;11187;49.412;20.956;2023-05-06T03:15:53;17.45;;;16.05;;
22046;SDS011;11187;49.412;20.956;2023-05-06T03:18:26;20.02;;;17.98;;
22046;SDS011;11187;49.412;20.956;2023-05-06T03:21:13;19.02;;;17.08;;
22046;SDS011;11187;49.412;20.956;2023-05-06T03:23:47;18.20;;;16.70;;
22046;SDS011;11187;49.412;20.956;2023-05-06T03:26:40;17.63;;;16.13;;
22046;SDS011;11187;49.412;20.956;2023-05-06T03:29:13;16.98;;;15.48;;
22046;SDS011;11187;49.412;20.956;2023-05-06T03:32:07;18.17;;;16.65;;
22046;SDS011;11187;49.412;20.956;2023-05-06T03:34:41;18.02;;;16.52;;
22046;SDS011;11187;49.412;20.956;2023-05-06T03:37:34;18.40;;;16.80;;
22046;SDS011;11187;49.412;20.956;2023-05-06T03:40:08;18.15;;;16.65;;
22046;SDS011;11187;49.412;20.956;2023-05-06T03:43:01;19.73;;;18.10;;
22046;SDS011;11187;49.412;20.956;2023-05-06T03:45:56;18.40;;;16.92;;
22046;SDS011;11187;49.412;20.956;2023-05-06T03:48:30;17.70;;;16.27;;
22046;SDS011;11187;49.412;20.956;2023-05-06T03:51:16;16.90;;;15.57;;
22046;SDS011;11187;49.412;20.956;2023-05-06T03:53:50;18.23;;;16.75;;
22046;SDS011;11187;49.412;20.956;2023-05-06T03:56:36;17.45;;;15.70;;
22046;SDS011;11187;49.412;20.956;2023-05-06T03:59:10;17.90;;;16.30;;
22046;SDS011;11187;49.412;20.956;2023-05-06T04:01:56;15.05;;;13.75;;
22046;SDS011;11187;49.412;20.956;2023-05-06T04:04:30;16.08;;;14.68;;
22046;SDS011;11187;49.412;20.956;2023-05-06T04:07:16;15.90;;;14.45;;
22046;SDS011;11187;49.412;20.956;2023-05-06T04:09:50;15.90;;;14.50;;
22046;SDS011;11187;49.412;20.956;2023-05-06T04:12:36;15.77;;;14.27;;
22046;SDS011;11187;49.412;20.956;2023-05-06T04:15:10;16.55;;;14.90;;
22046;SDS011;11187;49.412;20.956;2023-05-06T04:18:04;17.77;;;16.02;;
22046;SDS011;11187;49.412;20.956;2023-05-06T04:20:57;17.02;;;15.32;;
22046;SDS011;11187;49.412;20.956;2023-05-06T04:23:32;17.33;;;15.70;;
22046;SDS011;11187;49.412;20.956;2023-05-06T04:26:25;17.65;;;15.93;;
22046;SDS011;11187;49.412;20.956;2023-05-06T04:29:19;19.55;;;16.80;;
22046;SDS011;11187;49.412;20.956;2023-05-06T04:32:13;21.33;;;19.23;;
22046;SDS011;11187;49.412;20.956;2023-05-06T04:34:49;19.95;;;18.02;;
22046;SDS011;11187;49.412;20.956;2023-05-06T04:37:35;18.73;;;16.77;;
22046;SDS011;11187;49.412;20.956;2023-05-06T04:40:09;16.88;;;15.38;;
22046;SDS011;11187;49.412;20.956;2023-05-06T04:42:57;18.13;;;16.35;;
22046;SDS011;11187;49.412;20.956;2023-05-06T04:45:31;19.17;;;17.40;;
22046;SDS011;11187;49.412;20.956;2023-05-06T04:48:19;18.90;;;17.33;;
22046;SDS011;11187;49.412;20.956;2023-05-06T04:50:56;18.75;;;17.05;;
22046;SDS011;11187;49.412;20.956;2023-05-06T04:53:45;17.52;;;15.93;;
22046;SDS011;11187;49.412;20.956;2023-05-06T04:56:19;18.38;;;16.58;;
22046;SDS011;11187;49.412;20.956;2023-05-06T04:59:05;20.15;;;18.25;;
22046;SDS011;11187;49.412;20.956;2023-05-06T05:01:39;21.50;;;19.25;;
22046;SDS011;11187;49.412;20.956;2023-05-06T05:04:32;19.90;;;17.88;;
22046;SDS011;11187;49.412;20.956;2023-05-06T05:07:26;18.15;;;16.45;;
22046;SDS011;11187;49.412;20.956;2023-05-06T05:10:00;19.27;;;17.38;;
22046;SDS011;11187;49.412;20.956;2023-05-06T05:12:50;19.30;;;17.48;;
22046;SDS011;11187;49.412;20.956;2023-05-06T05:15:24;20.55;;;18.45;;
22046;SDS011;11187;49.412;20.956;2023-05-06T05:18:17;18.98;;;17.17;;
22046;SDS011;11187;49.412;20.956;2023-05-06T05:21:11;18.83;;;17.13;;
22046;SDS011;11187;49.412;20.956;2023-05-06T05:23:45;20.77;;;18.80;;
22046;SDS011;11187;49.412;20.956;2023-05-06T05:26:31;20.83;;;18.65;;
22046;SDS011;11187;49.412;20.956;2023-05-06T05:29:05;21.92;;;19.85;;
22046;SDS011;11187;49.412;20.956;2023-05-06T05:31:58;21.30;;;19.20;;
22046;SDS011;11187;49.412;20.956;2023-05-06T05:34:52;19.98;;;18.05;;
22046;SDS011;11187;49.412;20.956;2023-05-06T05:37:26;20.63;;;18.83;;
22046;SDS011;11187;49.412;20.956;2023-05-06T05:40:12;20.35;;;18.52;;
22046;SDS011;11187;49.412;20.956;2023-05-06T05:42:46;20.60;;;18.50;;
22046;SDS011;11187;49.412;20.956;2023-05-06T05:45:32;22.08;;;19.77;;
22046;SDS011;11187;49.412;20.956;2023-05-06T05:48:06;21.80;;;19.45;;
22046;SDS011;11187;49.412;20.956;2023-05-06T05:51:02;21.60;;;19.35;;
22046;SDS011;11187;49.412;20.956;2023-05-06T05:53:56;20.50;;;17.92;;
22046;SDS011;11187;49.412;20.956;2023-05-06T05:56:50;18.85;;;16.92;;
22046;SDS011;11187;49.412;20.956;2023-05-06T05:59:44;17.98;;;16.33;;
22046;SDS011;11187;49.412;20.956;2023-05-06T06:02:38;18.63;;;16.77;;
22046;SDS011;11187;49.412;20.956;2023-05-06T06:05:13;17.67;;;16.17;;
22046;SDS011;11187;49.412;20.956;2023-05-06T06:07:59;18.83;;;17.13;;
22046;SDS011;11187;49.412;20.956;2023-05-06T06:10:33;17.70;;;15.95;;
22046;SDS011;11187;49.412;20.956;2023-05-06T06:13:20;18.75;;;16.95;;
22046;SDS011;11187;49.412;20.956;2023-05-06T06:15:55;19.45;;;17.33;;
22046;SDS011;11187;49.412;20.956;2023-05-06T06:18:42;13.80;;;12.43;;
22046;SDS011;11187;49.412;20.956;2023-05-06T06:21:16;14.00;;;12.70;;
22046;SDS011;11187;49.412;20.956;2023-05-06T06:24:11;18.10;;;16.60;;
22046;SDS011;11187;49.412;20.956;2023-05-06T06:26:45;17.83;;;16.23;;
22046;SDS011;11187;49.412;20.956;2023-05-06T06:29:38;18.73;;;17.02;;
22046;SDS011;11187;49.412;20.956;2023-05-06T06:32:32;19.15;;;17.42;;
22046;SDS011;11187;49.412;20.956;2023-05-06T06:35:06;18.83;;;17.13;;
22046;SDS011;11187;49.412;20.956;2023-05-06T06:37:53;19.35;;;17.75;;
22046;SDS011;11187;49.412;20.956;2023-05-06T06:40:27;19.17;;;17.48;;
22046;SDS011;11187;49.412;20.956;2023-05-06T06:43:20;18.52;;;16.65;;
22046;SDS011;11187;49.412;20.956;2023-05-06T06:46:14;17.48;;;16.00;;
22046;SDS011;11187;49.412;20.956;2023-05-06T06:48:48;17.80;;;16.23;;
22046;SDS011;11187;49.412;20.956;2023-05-06T06:51:34;17.88;;;16.48;;
22046;SDS011;11187;49.412;20.956;2023-05-06T06:54:08;18.33;;;16.85;;
22046;SDS011;11187;49.412;20.956;2023-05-06T06:56:54;17.33;;;15.93;;
22046;SDS011;11187;49.412;20.956;2023-05-06T06:59:29;19.70;;;18.10;;
22046;SDS011;11187;49.412;20.956;2023-05-06T07:02:15;17.48;;;16.10;;
22046;SDS011;11187;49.412;20.956;2023-05-06T07:04:49;19.48;;;17.60;;
22046;SDS011;11187;49.412;20.956;2023-05-06T07:07:42;18.50;;;16.90;;
22046;SDS011;11187;49.412;20.956;2023-05-06T07:10:36;18.60;;;17.10;;
22046;SDS011;11187;49.412;20.956;2023-05-06T07:13:30;18.95;;;17.15;;
22046;SDS011;11187;49.412;20.956;2023-05-06T07:16:04;18.70;;;17.20;;
22046;SDS011;11187;49.412;20.956;2023-05-06T07:18:57;19.58;;;18.17;;
22046;SDS011;11187;49.412;20.956;2023-05-06T07:21:31;19.10;;;17.23;;
22046;SDS011;11187;49.412;20.956;2023-05-06T07:24:24;19.30;;;17.80;;
22046;SDS011;11187;49.412;20.956;2023-05-06T07:27:18;19.02;;;17.65;;
22046;SDS011;11187;49.412;20.956;2023-05-06T07:30:15;17.88;;;16.48;;
22046;SDS011;11187;49.412;20.956;2023-05-06T07:32:51;17.70;;;16.40;;
22046;SDS011;11187;49.412;20.956;2023-05-06T07:35:37;18.45;;;17.05;;
22046;SDS011;11187;49.412;20.956;2023-05-06T07:38:11;18.05;;;16.50;;
22046;SDS011;11187;49.412;20.956;2023-05-06T07:41:04;19.23;;;17.67;;
22046;SDS011;11187;49.412;20.956;2023-05-06T07:43:38;17.48;;;16.17;;
22046;SDS011;11187;49.412;20.956;2023-05-06T07:46:31;17.45;;;16.15;;
22046;SDS011;11187;49.412;20.956;2023-05-06T07:49:25;18.27;;;16.88;;
22046;SDS011;11187;49.412;20.956;2023-05-06T07:52:00;19.17;;;17.58;;
22046;SDS011;11187;49.412;20.956;2023-05-06T07:54:46;18.80;;;17.40;;
22046;SDS011;11187;49.412;20.956;2023-05-06T07:57:22;21.80;;;18.00;;
22046;SDS011;11187;49.412;20.956;2023-05-06T08:00:09;19.45;;;18.05;;
22046;SDS011;11187;49.412;20.956;2023-05-06T08:02:44;18.92;;;17.08;;
22046;SDS011;11187;49.412;20.956;2023-05-06T08:05:37;19.92;;;18.10;;
22046;SDS011;11187;49.412;20.956;2023-05-06T08:08:31;18.73;;;17.30;;
22046;SDS011;11187;49.412;20.956;2023-05-06T08:11:05;19.42;;;17.92;;
22046;SDS011;11187;49.412;20.956;2023-05-06T08:13:51;19.00;;;17.60;;
22046;SDS011;11187;49.412;20.956;2023-05-06T08:16:25;18.73;;;17.33;;
22046;SDS011;11187;49.412;20.956;2023-05-06T08:19:11;18.88;;;17.38;;
22046;SDS011;11187;49.412;20.956;2023-05-06T08:21:45;17.58;;;16.02;;
22046;SDS011;11187;49.412;20.956;2023-05-06T08:24:32;18.80;;;17.30;;
22046;SDS011;11187;49.412;20.956;2023-05-06T08:27:06;18.58;;;16.95;;
22046;SDS011;11187;49.412;20.956;2023-05-06T08:29:52;18.15;;;16.85;;
22046;SDS011;11187;49.412;20.956;2023-05-06T08:32:26;18.02;;;16.80;;
22046;SDS011;11187;49.412;20.956;2023-05-06T08:35:12;20.77;;;17.85;;
22046;SDS011;11187;49.412;20.956;2023-05-06T08:37:46;17.58;;;16.38;;
22046;SDS011;11187;49.412;20.956;2023-05-06T08:40:32;18.95;;;17.55;;
22046;SDS011;11187;49.412;20.956;2023-05-06T08:43:07;18.40;;;16.67;;
22046;SDS011;11187;49.412;20.956;2023-05-06T08:45:58;17.58;;;15.90;;
22046;SDS011;11187;49.412;20.956;2023-05-06T08:48:32;16.63;;;15.43;;
22046;SDS011;11187;49.412;20.956;2023-05-06T08:51:27;18.88;;;17.45;;
22046;SDS011;11187;49.412;20.956;2023-05-06T08:54:02;17.05;;;15.68;;
22046;SDS011;11187;49.412;20.956;2023-05-06T08:56:56;18.67;;;17.35;;
22046;SDS011;11187;49.412;20.956;2023-05-06T08:59:54;18.95;;;17.55;;
22046;SDS011;11187;49.412;20.956;2023-05-06T09:02:48;18.42;;;17.23;;
22046;SDS011;11187;49.412;20.956;2023-05-06T09:05:22;18.17;;;16.38;;
22046;SDS011;11187;49.412;20.956;2023-05-06T09:08:08;19.55;;;18.05;;
22046;SDS011;11187;49.412;20.956;2023-05-06T09:10:44;19.77;;;17.70;;
22046;SDS011;11187;49.412;20.956;2023-05-06T09:13:31;18.35;;;16.92;;
22046;SDS011;11187;49.412;20.956;2023-05-06T09:16:05;21.27;;;19.48;;
22046;SDS011;11187;49.412;20.956;2023-05-06T09:18:51;20.17;;;18.77;;
22046;SDS011;11187;49.412;20.956;2023-05-06T09:21:31;18.73;;;17.23;;
22046;SDS011;11187;49.412;20.956;2023-05-06T09:24:21;19.27;;;17.98;;
22046;SDS011;11187;49.412;20.956;2023-05-06T09:26:56;18.88;;;17.58;;
22046;SDS011;11187;49.412;20.956;2023-05-06T09:29:48;17.67;;;16.27;;
22046;SDS011;11187;49.412;20.956;2023-05-06T09:32:33;18.52;;;17.02;;
22046;SDS011;11187;49.412;20.956;2023-05-06T09:35:20;19.25;;;17.60;;
22046;SDS011;11187;49.412;20.956;2023-05-06T09:38:00;16.45;;;15.20;;
22046;SDS011;11187;49.412;20.956;2023-05-06T09:40:53;15.98;;;14.88;;
22046;SDS011;11187;49.412;20.956;2023-05-06T09:43:28;16.08;;;14.68;;
22046;SDS011;11187;49.412;20.956;2023-05-06T09:46:15;16.98;;;15.70;;
22046;SDS011;11187;49.412;20.956;2023-05-06T09:48:49;16.55;;;15.02;;
22046;SDS011;11187;49.412;20.956;2023-05-06T09:51:44;17.52;;;16.33;;
22046;SDS011;11187;49.412;20.956;2023-05-06T09:54:40;17.88;;;16.58;;
22046;SDS011;11187;49.412;20.956;2023-05-06T09:57:15;16.50;;;15.40;;
22046;SDS011;11187;49.412;20.956;2023-05-06T10:00:10;17.85;;;16.23;;
22046;SDS011;11187;49.412;20.956;2023-05-06T10:02:45;17.02;;;15.93;;
22046;SDS011;11187;49.412;20.956;2023-05-06T10:05:39;16.23;;;15.13;;
22046;SDS011;11187;49.412;20.956;2023-05-06T10:08:33;17.45;;;16.20;;
22046;SDS011;11187;49.412;20.956;2023-05-06T10:11:08;17.45;;;16.15;;
22046;SDS011;11187;49.412;20.956;2023-05-06T10:14:03;16.20;;;14.98;;
22046;SDS011;11187;49.412;20.956;2023-05-06T10:16:57;16.25;;;14.95;;
22046;SDS011;11187;49.412;20.956;2023-05-06T10:19:31;18.25;;;16.85;;
22046;SDS011;11187;49.412;20.956;2023-05-06T10:22:27;17.35;;;15.95;;
22046;SDS011;11187;49.412;20.956;2023-05-06T10:25:33;18.55;;;16.98;;
22046;SDS011;11187;49.412;20.956;2023-05-06T10:28:23;17.52;;;16.15;;
22046;SDS011;11187;49.412;20.956;2023-05-06T10:30:57;18.35;;;16.75;;
22046;SDS011;11187;49.412;20.956;2023-05-06T10:33:45;18.75;;;17.15;;
22046;SDS011;11187;49.412;20.956;2023-05-06T10:36:23;19.20;;;17.15;;
22046;SDS011;11187;49.412;20.956;2023-05-06T10:39:11;18.00;;;16.60;;
22046;SDS011;11187;49.412;20.956;2023-05-06T10:41:46;18.13;;;16.73;;
22046;SDS011;11187;49.412;20.956;2023-05-06T10:48:13;20.52;;;18.05;;
22046;SDS011;11187;49.412;20.956;2023-05-06T10:50:49;18.83;;;17.23;;
22046;SDS011;11187;49.412;20.956;2023-05-06T10:53:59;20.77;;;19.10;;
22046;SDS011;11187;49.412;20.956;2023-05-06T10:59:48;20.45;;;18.80;;
22046;SDS011;11187;49.412;20.956;2023-05-06T11:02:22;19.25;;;17.95;;
22046;SDS011;11187;49.412;20.956;2023-05-06T11:05:15;19.33;;;17.80;;
22046;SDS011;11187;49.412;20.956;2023-05-06T11:08:09;19.30;;;17.77;;
22046;SDS011;11187;49.412;20.956;2023-05-06T11:10:43;19.48;;;17.88;;
22046;SDS011;11187;49.412;20.956;2023-05-06T11:13:36;21.10;;;18.80;;
22046;SDS011;11187;49.412;20.956;2023-05-06T11:16:10;19.05;;;17.60;;
22046;SDS011;11187;49.412;20.956;2023-05-06T11:19:39;19.90;;;18.05;;
22046;SDS011;11187;49.412;20.956;2023-05-06T11:22:37;21.13;;;19.42;;
22046;SDS011;11187;49.412;20.956;2023-05-06T11:28:34;20.65;;;19.15;;
22046;SDS011;11187;49.412;20.956;2023-05-06T11:31:08;18.33;;;16.92;;
22046;SDS011;11187;49.412;20.956;2023-05-06T11:34:02;19.50;;;18.10;;
22046;SDS011;11187;49.412;20.956;2023-05-06T11:37:04;20.42;;;18.95;;
22046;SDS011;11187;49.412;20.956;2023-05-06T11:39:59;19.70;;;18.15;;
22046;SDS011;11187;49.412;20.956;2023-05-06T11:42:33;19.25;;;17.75;;
22046;SDS011;11187;49.412;20.956;2023-05-06T11:45:38;22.10;;;20.13;;
22046;SDS011;11187;49.412;20.956;2023-05-06T11:48:12;20.73;;;19.33;;
22046;SDS011;11187;49.412;20.956;2023-05-06T11:51:06;20.15;;;18.42;;
22046;SDS011;11187;49.412;20.956;2023-05-06T11:54:04;19.40;;;17.80;;
22046;SDS011;11187;49.412;20.956;2023-05-06T11:56:46;20.77;;;19.27;;
22046;SDS011;11187;49.412;20.956;2023-05-06T11:59:43;17.88;;;16.35;;
22046;SDS011;11187;49.412;20.956;2023-05-06T12:02:37;17.65;;;16.35;;
22046;SDS011;11187;49.412;20.956;2023-05-06T12:05:31;16.92;;;15.65;;
22046;SDS011;11187;49.412;20.956;2023-05-06T12:08:06;22.85;;;20.95;;
22046;SDS011;11187;49.412;20.956;2023-05-06T12:11:07;20.52;;;18.92;;
22046;SDS011;11187;49.412;20.956;2023-05-06T12:14:02;19.48;;;17.98;;
22046;SDS011;11187;49.412;20.956;2023-05-06T12:16:58;21.42;;;19.48;;
22046;SDS011;11187;49.412;20.956;2023-05-06T12:19:32;20.23;;;18.63;;
22046;SDS011;11187;49.412;20.956;2023-05-06T12:22:25;18.45;;;17.05;;
22046;SDS011;11187;49.412;20.956;2023-05-06T12:25:10;19.52;;;18.00;;
22046;SDS011;11187;49.412;20.956;2023-05-06T12:28:12;21.67;;;19.70;;
22046;SDS011;11187;49.412;20.956;2023-05-06T12:30:49;19.92;;;18.52;;
22046;SDS011;11187;49.412;20.956;2023-05-06T12:33:43;21.15;;;19.48;;
22046;SDS011;11187;49.412;20.956;2023-05-06T12:36:40;19.95;;;18.45;;
22046;SDS011;11187;49.412;20.956;2023-05-06T12:39:36;17.63;;;16.23;;
22046;SDS011;11187;49.412;20.956;2023-05-06T12:42:10;18.85;;;17.52;;
22046;SDS011;11187;49.412;20.956;2023-05-06T12:45:13;17.00;;;15.50;;
22046;SDS011;11187;49.412;20.956;2023-05-06T12:47:56;17.13;;;15.75;;
22046;SDS011;11187;49.412;20.956;2023-05-06T12:50:45;16.27;;;14.88;;
22046;SDS011;11187;49.412;20.956;2023-05-06T12:53:29;15.57;;;14.25;;
22046;SDS011;11187;49.412;20.956;2023-05-06T12:56:24;14.40;;;13.20;;
22046;SDS011;11187;49.412;20.956;2023-05-06T12:59:18;16.15;;;14.85;;
22046;SDS011;11187;49.412;20.956;2023-05-06T13:01:52;16.75;;;15.40;;
22046;SDS011;11187;49.412;20.956;2023-05-06T13:04:40;15.48;;;14.35;;
22046;SDS011;11187;49.412;20.956;2023-05-06T13:07:13;15.35;;;14.00;;
22046;SDS011;11187;49.412;20.956;2023-05-06T13:10:01;14.90;;;13.73;;
22046;SDS011;11187;49.412;20.956;2023-05-06T13:12:54;17.00;;;15.77;;
22046;SDS011;11187;49.412;20.956;2023-05-06T13:15:49;15.60;;;14.43;;
22046;SDS011;11187;49.412;20.956;2023-05-06T13:18:44;16.83;;;15.52;;
22046;SDS011;11187;49.412;20.956;2023-05-06T13:21:39;16.33;;;14.82;;
22046;SDS011;11187;49.412;20.956;2023-05-06T13:24:13;14.90;;;13.63;;
22046;SDS011;11187;49.412;20.956;2023-05-06T13:26:59;14.32;;;13.25;;
22046;SDS011;11187;49.412;20.956;2023-05-06T13:29:34;15.48;;;13.95;;
22046;SDS011;11187;49.412;20.956;2023-05-06T13:32:20;16.25;;;15.05;;
22046;SDS011;11187;49.412;20.956;2023-05-06T13:34:54;16.58;;;15.05;;
22046;SDS011;11187;49.412;20.956;2023-05-06T13:37:42;15.95;;;14.73;;
22046;SDS011;11187;49.412;20.956;2023-05-06T13:40:16;15.43;;;14.00;;
22046;SDS011;11187;49.412;20.956;2023-05-06T13:43:02;15.15;;;13.90;;
22046;SDS011;11187;49.412;20.956;2023-05-06T13:45:36;16.10;;;14.60;;
22046;SDS011;11187;49.412;20.956;2023-05-06T13:48:25;15.02;;;13.82;;
22046;SDS011;11187;49.412;20.956;2023-05-06T13:50:59;15.75;;;14.52;;
22046;SDS011;11187;49.412;20.956;2023-05-06T13:53:45;15.68;;;14.38;;
22046;SDS011;11187;49.412;20.956;2023-05-06T13:56:19;17.17;;;15.88;;
22046;SDS011;11187;49.412;20.956;2023-05-06T13:59:12;15.85;;;14.55;;
22046;SDS011;11187;49.412;20.956;2023-05-06T14:01:46;16.17;;;14.73;;
22046;SDS011;11187;49.412;20.956;2023-05-06T14:04:35;15.65;;;14.35;;
22046;SDS011;11187;49.412;20.956;2023-05-06T14:07:08;15.25;;;14.15;;
22046;SDS011;11187;49.412;20.956;2023-05-06T14:09:55;14.95;;;13.70;;
22046;SDS011;11187;49.412;20.956;2023-05-06T14:12:48;15.38;;;14.20;;
22046;SDS011;11187;49.412;20.956;2023-05-06T14:15:23;14.48;;;13.32;;
22046;SDS011;11187;49.412;20.956;2023-05-06T14:18:10;15.00;;;13.63;;
22046;SDS011;11187;49.412;20.956;2023-05-06T14:20:43;14.85;;;13.60;;
22046;SDS011;11187;49.412;20.956;2023-05-06T14:23:30;15.75;;;14.32;;
22046;SDS011;11187;49.412;20.956;2023-05-06T14:26:04;15.35;;;14.15;;
22046;SDS011;11187;49.412;20.956;2023-05-06T14:28:51;15.27;;;14.07;;
22046;SDS011;11187;49.412;20.956;2023-05-06T14:31:24;16.50;;;15.10;;
22046;SDS011;11187;49.412;20.956;2023-05-06T14:34:18;17.80;;;16.13;;
22046;SDS011;11187;49.412;20.956;2023-05-06T14:36:51;17.95;;;16.52;;
22046;SDS011;11187;49.412;20.956;2023-05-06T14:39:38;16.85;;;15.20;;
22046;SDS011;11187;49.412;20.956;2023-05-06T14:42:12;16.45;;;15.15;;
22046;SDS011;11187;49.412;20.956;2023-05-06T14:45:06;16.80;;;15.50;;
22046;SDS011;11187;49.412;20.956;2023-05-06T14:48:01;17.40;;;16.10;;
22046;SDS011;11187;49.412;20.956;2023-05-06T14:50:55;16.00;;;14.60;;
22046;SDS011;11187;49.412;20.956;2023-05-06T14:53:28;16.02;;;14.65;;
22046;SDS011;11187;49.412;20.956;2023-05-06T14:56:15;16.48;;;14.98;;
22046;SDS011;11187;49.412;20.956;2023-05-06T14:58:48;17.52;;;15.73;;
22046;SDS011;11187;49.412;20.956;2023-05-06T15:01:43;18.13;;;16.42;;
22046;SDS011;11187;49.412;20.956;2023-05-06T15:04:37;17.30;;;15.85;;
22046;SDS011;11187;49.412;20.956;2023-05-06T15:07:31;17.17;;;15.88;;
22046;SDS011;11187;49.412;20.956;2023-05-06T15:10:25;17.50;;;16.00;;
22046;SDS011;11187;49.412;20.956;2023-05-06T15:13:19;17.65;;;16.08;;
22046;SDS011;11187;49.412;20.956;2023-05-06T15:15:52;18.85;;;17.33;;
22046;SDS011;11187;49.412;20.956;2023-05-06T15:18:49;19.10;;;17.25;;
22046;SDS011;11187;49.412;20.956;2023-05-06T15:21:43;18.85;;;17.40;;
22046;SDS011;11187;49.412;20.956;2023-05-06T15:24:16;18.90;;;17.30;;
22046;SDS011;11187;49.412;20.956;2023-05-06T15:27:03;20.30;;;18.63;;
22046;SDS011;11187;49.412;20.956;2023-05-06T15:29:36;19.88;;;18.27;;
22046;SDS011;11187;49.412;20.956;2023-05-06T15:32:31;19.20;;;17.60;;
22046;SDS011;11187;49.412;20.956;2023-05-06T15:35:04;19.48;;;17.70;;
22046;SDS011;11187;49.412;20.956;2023-05-06T15:38:02;18.08;;;16.67;;
22046;SDS011;11187;49.412;20.956;2023-05-06T15:40:36;18.48;;;17.00;;
22046;SDS011;11187;49.412;20.956;2023-05-06T15:43:31;18.73;;;17.05;;
22046;SDS011;11187;49.412;20.956;2023-05-06T15:46:25;19.02;;;17.38;;
22046;SDS011;11187;49.412;20.956;2023-05-06T15:49:20;18.95;;;17.27;;
22046;SDS011;11187;49.412;20.956;2023-05-06T15:52:20;18.67;;;17.02;;
22046;SDS011;11187;49.412;20.956;2023-05-06T15:54:53;18.23;;;16.67;;
22046;SDS011;11187;49.412;20.956;2023-05-06T15:57:47;18.70;;;17.13;;
22046;SDS011;11187;49.412;20.956;2023-05-06T16:00:41;19.13;;;17.63;;
22046;SDS011;11187;49.412;20.956;2023-05-06T16:03:15;18.42;;;16.92;;
22046;SDS011;11187;49.412;20.956;2023-05-06T16:06:09;19.85;;;18.30;;
22046;SDS011;11187;49.412;20.956;2023-05-06T16:09:04;20.02;;;18.27;;
22046;SDS011;11187;49.412;20.956;2023-05-06T16:11:58;19.13;;;17.27;;